sensor_id;sensor_type;location;lat;lon;timestamp;temperature;humidity
1297;DHT22;641;48.492;9.184;2022-11-11T00:00:33;7.50;99.90
1297;DHT22;641;48.492;9.184;2022-11-11T00:02:59;7.80;99.90
1297;DHT22;641;48.492;9.184;2022-11-11T00:05:26;7.70;99.90
1297;DHT22;641;48.492;9.184;2022-11-11T00:07:52;7.60;99.90
1297;DHT22;641;48.492;9.184;2022-11-11T00:10:18;7.50;99.90
1297;DHT22;641;48.492;9.184;2022-11-11T00:12:44;7.50;99.90
1297;DHT22;641;48.492;9.184;2022-11-11T00:15:10;7.50;99.90
1297;DHT22;641;48.492;9.184;2022-11-11T00:17:36;7.30;99.90
1297;DHT22;641;48.492;9.184;2022-11-11T00:20:20;7.40;99.90
1297;DHT22;641;48.492;9.184;2022-11-11T00:23:07;7.50;99.90
1297;DHT22;641;48.492;9.184;2022-11-11T00:25:59;7.50;99.90
1297;DHT22;641;48.492;9.184;2022-11-11T00:28:25;7.40;99.90
1297;DHT22;641;48.492;9.184;2022-11-11T00:30:50;7.30;99.90
1297;DHT22;641;48.492;9.184;2022-11-11T00:33:16;7.10;99.90
1297;DHT22;641;48.492;9.184;2022-11-11T00:35:42;7.20;99.90
1297;DHT22;641;48.492;9.184;2022-11-11T00:38:19;7.20;99.90
1297;DHT22;641;48.492;9.184;2022-11-11T00:41:04;7.40;99.90
1297;DHT22;641;48.492;9.184;2022-11-11T00:43:30;7.10;99.90
1297;DHT22;641;48.492;9.184;2022-11-11T00:45:56;7.10;99.90
1297;DHT22;641;48.492;9.184;2022-11-11T00:48:41;7.30;99.90
1297;DHT22;641;48.492;9.184;2022-11-11T00:51:25;7.40;99.90
1297;DHT22;641;48.492;9.184;2022-11-11T00:53:51;7.30;99.90
1297;DHT22;641;48.492;9.184;2022-11-11T00:56:17;7.20;99.90
1297;DHT22;641;48.492;9.184;2022-11-11T00:58:43;7.10;99.90
1297;DHT22;641;48.492;9.184;2022-11-11T01:01:08;7.20;99.90
1297;DHT22;641;48.492;9.184;2022-11-11T01:03:34;7.30;99.90
1297;DHT22;641;48.492;9.184;2022-11-11T01:06:03;7.30;99.90
1297;DHT22;641;48.492;9.184;2022-11-11T01:08:30;7.20;99.90
1297;DHT22;641;48.492;9.184;2022-11-11T01:10:56;7.40;99.90
1297;DHT22;641;48.492;9.184;2022-11-11T01:13:24;7.40;99.90
1297;DHT22;641;48.492;9.184;2022-11-11T01:15:56;7.30;99.90
1297;DHT22;641;48.492;9.184;2022-11-11T01:18:24;7.30;99.90
1297;DHT22;641;48.492;9.184;2022-11-11T01:21:07;7.30;99.90
1297;DHT22;641;48.492;9.184;2022-11-11T01:23:44;7.10;99.90
1297;DHT22;641;48.492;9.184;2022-11-11T01:26:26;6.90;99.90
1297;DHT22;641;48.492;9.184;2022-11-11T01:28:54;7.00;99.90
1297;DHT22;641;48.492;9.184;2022-11-11T01:31:22;7.00;99.90
1297;DHT22;641;48.492;9.184;2022-11-11T01:33:48;6.90;99.90
1297;DHT22;641;48.492;9.184;2022-11-11T01:36:19;7.00;99.90
1297;DHT22;641;48.492;9.184;2022-11-11T01:38:49;6.80;99.90
1297;DHT22;641;48.492;9.184;2022-11-11T01:41:17;7.00;99.90
1297;DHT22;641;48.492;9.184;2022-11-11T01:44:12;7.00;99.90
1297;DHT22;641;48.492;9.184;2022-11-11T01:49:24;6.80;99.90
1297;DHT22;641;48.492;9.184;2022-11-11T01:58:10;6.70;99.90
1297;DHT22;641;48.492;9.184;2022-11-11T02:00:37;7.00;99.90
1297;DHT22;641;48.492;9.184;2022-11-11T02:03:06;7.00;99.90
1297;DHT22;641;48.492;9.184;2022-11-11T02:05:32;6.90;99.90
1297;DHT22;641;48.492;9.184;2022-11-11T02:08:26;7.10;99.90
1297;DHT22;641;48.492;9.184;2022-11-11T02:11:12;6.80;99.90
1297;DHT22;641;48.492;9.184;2022-11-11T02:13:40;6.90;99.90
1297;DHT22;641;48.492;9.184;2022-11-11T02:16:25;6.90;99.90
1297;DHT22;641;48.492;9.184;2022-11-11T02:18:51;6.90;99.90
1297;DHT22;641;48.492;9.184;2022-11-11T02:21:34;6.80;99.90
1297;DHT22;641;48.492;9.184;2022-11-11T02:24:07;6.80;99.90
1297;DHT22;641;48.492;9.184;2022-11-11T02:26:35;6.80;99.90
1297;DHT22;641;48.492;9.184;2022-11-11T02:29:04;6.80;99.90
1297;DHT22;641;48.492;9.184;2022-11-11T02:31:33;6.60;99.90
1297;DHT22;641;48.492;9.184;2022-11-11T02:33:58;6.70;99.90
1297;DHT22;641;48.492;9.184;2022-11-11T02:36:24;6.60;99.90
1297;DHT22;641;48.492;9.184;2022-11-11T02:38:50;6.40;99.90
1297;DHT22;641;48.492;9.184;2022-11-11T02:41:16;6.30;99.90
1297;DHT22;641;48.492;9.184;2022-11-11T02:44:00;6.50;99.90
1297;DHT22;641;48.492;9.184;2022-11-11T02:46:26;6.40;99.90
1297;DHT22;641;48.492;9.184;2022-11-11T02:48:52;6.50;99.90
1297;DHT22;641;48.492;9.184;2022-11-11T02:51:18;6.30;99.90
1297;DHT22;641;48.492;9.184;2022-11-11T02:53:43;6.30;99.90
1297;DHT22;641;48.492;9.184;2022-11-11T02:56:09;6.40;99.90
1297;DHT22;641;48.492;9.184;2022-11-11T02:58:34;6.40;99.90
1297;DHT22;641;48.492;9.184;2022-11-11T03:01:00;6.40;99.90
1297;DHT22;641;48.492;9.184;2022-11-11T03:03:26;6.50;99.90
1297;DHT22;641;48.492;9.184;2022-11-11T03:05:51;6.70;99.90
1297;DHT22;641;48.492;9.184;2022-11-11T03:08:17;6.60;99.90
1297;DHT22;641;48.492;9.184;2022-11-11T03:10:43;6.60;99.90
1297;DHT22;641;48.492;9.184;2022-11-11T03:13:08;6.60;99.90
1297;DHT22;641;48.492;9.184;2022-11-11T03:15:34;6.60;99.90
1297;DHT22;641;48.492;9.184;2022-11-11T03:18:00;6.50;99.90
1297;DHT22;641;48.492;9.184;2022-11-11T03:20:26;6.30;99.90
1297;DHT22;641;48.492;9.184;2022-11-11T03:23:11;6.20;99.90
1297;DHT22;641;48.492;9.184;2022-11-11T03:25:39;6.30;99.90
1297;DHT22;641;48.492;9.184;2022-11-11T03:28:07;6.40;99.90
1297;DHT22;641;48.492;9.184;2022-11-11T03:30:34;6.50;99.90
1297;DHT22;641;48.492;9.184;2022-11-11T03:33:00;6.20;99.90
1297;DHT22;641;48.492;9.184;2022-11-11T03:35:26;6.40;99.90
1297;DHT22;641;48.492;9.184;2022-11-11T03:37:52;6.40;99.90
1297;DHT22;641;48.492;9.184;2022-11-11T03:40:36;6.40;99.90
1297;DHT22;641;48.492;9.184;2022-11-11T03:43:02;6.40;99.90
1297;DHT22;641;48.492;9.184;2022-11-11T03:45:27;6.20;99.90
1297;DHT22;641;48.492;9.184;2022-11-11T03:47:53;6.30;99.90
1297;DHT22;641;48.492;9.184;2022-11-11T03:50:20;6.30;99.90
1297;DHT22;641;48.492;9.184;2022-11-11T03:52:46;6.30;99.90
1297;DHT22;641;48.492;9.184;2022-11-11T03:55:12;6.20;99.90
1297;DHT22;641;48.492;9.184;2022-11-11T03:57:42;6.20;99.90
1297;DHT22;641;48.492;9.184;2022-11-11T04:00:14;6.10;99.90
1297;DHT22;641;48.492;9.184;2022-11-11T04:02:40;6.10;99.90
1297;DHT22;641;48.492;9.184;2022-11-11T04:05:24;6.30;99.90
1297;DHT22;641;48.492;9.184;2022-11-11T04:08:12;6.40;99.90
1297;DHT22;641;48.492;9.184;2022-11-11T04:10:58;6.40;99.90
1297;DHT22;641;48.492;9.184;2022-11-11T04:13:25;6.10;99.90
1297;DHT22;641;48.492;9.184;2022-11-11T04:16:10;5.90;99.90
1297;DHT22;641;48.492;9.184;2022-11-11T04:18:36;5.90;99.90
1297;DHT22;641;48.492;9.184;2022-11-11T04:21:21;6.10;99.90
1297;DHT22;641;48.492;9.184;2022-11-11T04:24:07;5.90;99.90
1297;DHT22;641;48.492;9.184;2022-11-11T04:26:56;5.90;99.90
1297;DHT22;641;48.492;9.184;2022-11-11T04:29:22;6.10;99.90
1297;DHT22;641;48.492;9.184;2022-11-11T04:32:05;6.10;99.90
1297;DHT22;641;48.492;9.184;2022-11-11T04:34:58;5.90;99.90
1297;DHT22;641;48.492;9.184;2022-11-11T04:37:25;5.90;99.90
1297;DHT22;641;48.492;9.184;2022-11-11T04:39:51;6.10;99.90
1297;DHT22;641;48.492;9.184;2022-11-11T04:42:35;6.00;99.90
1297;DHT22;641;48.492;9.184;2022-11-11T04:45:02;6.10;99.90
1297;DHT22;641;48.492;9.184;2022-11-11T04:48:01;5.90;99.90
1297;DHT22;641;48.492;9.184;2022-11-11T04:50:32;5.90;99.90
1297;DHT22;641;48.492;9.184;2022-11-11T04:52:58;6.20;99.90
1297;DHT22;641;48.492;9.184;2022-11-11T04:55:24;6.10;99.90
1297;DHT22;641;48.492;9.184;2022-11-11T04:58:08;6.00;99.90
1297;DHT22;641;48.492;9.184;2022-11-11T05:00:34;5.80;99.90
1297;DHT22;641;48.492;9.184;2022-11-11T05:03:00;5.90;99.90
1297;DHT22;641;48.492;9.184;2022-11-11T05:05:45;6.00;99.90
1297;DHT22;641;48.492;9.184;2022-11-11T05:08:30;6.00;99.90
1297;DHT22;641;48.492;9.184;2022-11-11T05:11:16;5.90;99.90
1297;DHT22;641;48.492;9.184;2022-11-11T05:13:42;6.00;99.90
1297;DHT22;641;48.492;9.184;2022-11-11T05:16:28;6.00;99.90
1297;DHT22;641;48.492;9.184;2022-11-11T05:19:13;5.90;99.90
1297;DHT22;641;48.492;9.184;2022-11-11T05:22:15;6.00;99.90
1297;DHT22;641;48.492;9.184;2022-11-11T05:24:41;5.90;99.90
1297;DHT22;641;48.492;9.184;2022-11-11T05:27:25;5.80;99.90
1297;DHT22;641;48.492;9.184;2022-11-11T05:29:51;5.60;99.90
1297;DHT22;641;48.492;9.184;2022-11-11T05:32:18;5.80;99.90
1297;DHT22;641;48.492;9.184;2022-11-11T05:34:44;5.80;99.90
1297;DHT22;641;48.492;9.184;2022-11-11T05:37:11;5.50;99.90
1297;DHT22;641;48.492;9.184;2022-11-11T05:39:36;5.40;99.90
1297;DHT22;641;48.492;9.184;2022-11-11T05:42:02;5.50;99.90
1297;DHT22;641;48.492;9.184;2022-11-11T05:44:28;5.40;99.90
1297;DHT22;641;48.492;9.184;2022-11-11T05:46:54;5.60;99.90
1297;DHT22;641;48.492;9.184;2022-11-11T05:49:20;5.80;99.90
1297;DHT22;641;48.492;9.184;2022-11-11T05:51:46;5.50;99.90
1297;DHT22;641;48.492;9.184;2022-11-11T05:54:14;5.70;99.90
1297;DHT22;641;48.492;9.184;2022-11-11T05:56:42;5.80;99.90
1297;DHT22;641;48.492;9.184;2022-11-11T05:59:10;5.80;99.90
1297;DHT22;641;48.492;9.184;2022-11-11T06:01:36;5.90;99.90
1297;DHT22;641;48.492;9.184;2022-11-11T06:04:03;5.90;99.90
1297;DHT22;641;48.492;9.184;2022-11-11T06:06:29;5.60;99.90
1297;DHT22;641;48.492;9.184;2022-11-11T06:08:54;5.90;99.90
1297;DHT22;641;48.492;9.184;2022-11-11T06:11:20;5.90;99.90
1297;DHT22;641;48.492;9.184;2022-11-11T06:13:47;5.60;99.90
1297;DHT22;641;48.492;9.184;2022-11-11T06:16:12;5.80;99.90
1297;DHT22;641;48.492;9.184;2022-11-11T06:18:38;5.90;99.90
1297;DHT22;641;48.492;9.184;2022-11-11T06:21:04;6.10;99.90
1297;DHT22;641;48.492;9.184;2022-11-11T06:23:30;5.90;99.90
1297;DHT22;641;48.492;9.184;2022-11-11T06:25:56;6.00;99.90
1297;DHT22;641;48.492;9.184;2022-11-11T06:28:51;6.00;99.90
1297;DHT22;641;48.492;9.184;2022-11-11T06:31:25;5.80;99.90
1297;DHT22;641;48.492;9.184;2022-11-11T06:33:51;5.90;99.90
1297;DHT22;641;48.492;9.184;2022-11-11T06:36:19;5.90;99.90
1297;DHT22;641;48.492;9.184;2022-11-11T06:38:46;6.30;99.90
1297;DHT22;641;48.492;9.184;2022-11-11T06:41:12;6.10;99.90
1297;DHT22;641;48.492;9.184;2022-11-11T06:43:39;6.00;99.90
1297;DHT22;641;48.492;9.184;2022-11-11T06:46:05;6.00;99.90
1297;DHT22;641;48.492;9.184;2022-11-11T06:48:31;5.90;99.90
1297;DHT22;641;48.492;9.184;2022-11-11T06:51:01;5.80;99.90
1297;DHT22;641;48.492;9.184;2022-11-11T06:53:28;5.70;99.90
1297;DHT22;641;48.492;9.184;2022-11-11T06:55:54;5.90;99.90
1297;DHT22;641;48.492;9.184;2022-11-11T06:58:20;6.10;99.90
1297;DHT22;641;48.492;9.184;2022-11-11T07:00:47;6.20;99.90
1297;DHT22;641;48.492;9.184;2022-11-11T07:03:15;6.20;99.90
1297;DHT22;641;48.492;9.184;2022-11-11T07:05:42;6.30;99.90
1297;DHT22;641;48.492;9.184;2022-11-11T07:08:10;6.30;99.90
1297;DHT22;641;48.492;9.184;2022-11-11T07:10:38;6.30;99.90
1297;DHT22;641;48.492;9.184;2022-11-11T07:13:05;6.30;99.90
1297;DHT22;641;48.492;9.184;2022-11-11T07:15:31;6.30;99.90
1297;DHT22;641;48.492;9.184;2022-11-11T07:17:57;6.40;99.90
1297;DHT22;641;48.492;9.184;2022-11-11T07:20:23;6.60;99.90
1297;DHT22;641;48.492;9.184;2022-11-11T07:22:48;6.60;99.90
1297;DHT22;641;48.492;9.184;2022-11-11T07:25:14;6.50;99.90
1297;DHT22;641;48.492;9.184;2022-11-11T07:27:41;6.30;99.90
1297;DHT22;641;48.492;9.184;2022-11-11T07:30:08;6.50;99.90
1297;DHT22;641;48.492;9.184;2022-11-11T07:32:35;6.40;99.90
1297;DHT22;641;48.492;9.184;2022-11-11T07:35:00;6.60;99.90
1297;DHT22;641;48.492;9.184;2022-11-11T07:37:27;6.80;99.90
1297;DHT22;641;48.492;9.184;2022-11-11T07:39:52;7.00;99.90
1297;DHT22;641;48.492;9.184;2022-11-11T07:42:20;6.80;99.90
1297;DHT22;641;48.492;9.184;2022-11-11T07:44:45;7.00;99.90
1297;DHT22;641;48.492;9.184;2022-11-11T07:47:11;6.90;99.90
1297;DHT22;641;48.492;9.184;2022-11-11T07:49:36;6.70;99.90
1297;DHT22;641;48.492;9.184;2022-11-11T07:52:05;6.70;99.90
1297;DHT22;641;48.492;9.184;2022-11-11T07:54:33;6.60;99.90
1297;DHT22;641;48.492;9.184;2022-11-11T07:56:58;6.80;99.90
1297;DHT22;641;48.492;9.184;2022-11-11T07:59:24;6.80;99.90
1297;DHT22;641;48.492;9.184;2022-11-11T08:01:50;6.60;99.90
1297;DHT22;641;48.492;9.184;2022-11-11T08:04:18;6.60;99.90
1297;DHT22;641;48.492;9.184;2022-11-11T08:06:45;6.90;99.90
1297;DHT22;641;48.492;9.184;2022-11-11T08:09:11;7.00;99.90
1297;DHT22;641;48.492;9.184;2022-11-11T08:11:37;7.20;99.90
1297;DHT22;641;48.492;9.184;2022-11-11T08:14:21;7.30;99.90
1297;DHT22;641;48.492;9.184;2022-11-11T08:16:46;7.30;99.90
1297;DHT22;641;48.492;9.184;2022-11-11T08:19:14;7.40;99.90
1297;DHT22;641;48.492;9.184;2022-11-11T08:21:43;7.40;99.90
1297;DHT22;641;48.492;9.184;2022-11-11T08:24:08;7.40;99.90
1297;DHT22;641;48.492;9.184;2022-11-11T08:26:35;7.20;99.90
1297;DHT22;641;48.492;9.184;2022-11-11T08:29:00;7.10;99.90
1297;DHT22;641;48.492;9.184;2022-11-11T08:31:26;7.00;99.90
1297;DHT22;641;48.492;9.184;2022-11-11T08:33:52;6.50;99.90
1297;DHT22;641;48.492;9.184;2022-11-11T08:36:17;6.30;99.90
1297;DHT22;641;48.492;9.184;2022-11-11T08:38:43;6.40;99.90
1297;DHT22;641;48.492;9.184;2022-11-11T08:41:09;6.90;99.90
1297;DHT22;641;48.492;9.184;2022-11-11T08:43:35;6.90;99.90
1297;DHT22;641;48.492;9.184;2022-11-11T08:46:01;7.10;99.90
1297;DHT22;641;48.492;9.184;2022-11-11T08:48:29;7.80;99.90
1297;DHT22;641;48.492;9.184;2022-11-11T08:50:56;7.60;99.90
1297;DHT22;641;48.492;9.184;2022-11-11T08:53:22;7.50;99.90
1297;DHT22;641;48.492;9.184;2022-11-11T08:55:48;7.60;99.90
1297;DHT22;641;48.492;9.184;2022-11-11T08:58:13;7.70;99.90
1297;DHT22;641;48.492;9.184;2022-11-11T09:00:39;8.00;99.90
1297;DHT22;641;48.492;9.184;2022-11-11T09:03:14;7.80;99.90
1297;DHT22;641;48.492;9.184;2022-11-11T09:05:40;8.00;99.90
1297;DHT22;641;48.492;9.184;2022-11-11T09:08:07;8.00;99.90
1297;DHT22;641;48.492;9.184;2022-11-11T09:10:33;7.80;99.90
1297;DHT22;641;48.492;9.184;2022-11-11T09:13:00;7.70;99.90
1297;DHT22;641;48.492;9.184;2022-11-11T09:15:26;7.90;99.90
1297;DHT22;641;48.492;9.184;2022-11-11T09:17:52;7.80;99.90
1297;DHT22;641;48.492;9.184;2022-11-11T09:20:19;7.90;99.90
1297;DHT22;641;48.492;9.184;2022-11-11T09:22:46;7.70;99.90
1297;DHT22;641;48.492;9.184;2022-11-11T09:25:12;7.70;99.90
1297;DHT22;641;48.492;9.184;2022-11-11T09:27:38;7.80;99.90
1297;DHT22;641;48.492;9.184;2022-11-11T09:30:05;7.70;99.90
1297;DHT22;641;48.492;9.184;2022-11-11T09:32:31;7.90;99.90
1297;DHT22;641;48.492;9.184;2022-11-11T09:34:57;7.90;99.90
1297;DHT22;641;48.492;9.184;2022-11-11T09:37:23;8.20;99.90
1297;DHT22;641;48.492;9.184;2022-11-11T09:39:49;8.60;99.90
1297;DHT22;641;48.492;9.184;2022-11-11T09:42:44;8.50;99.90
1297;DHT22;641;48.492;9.184;2022-11-11T09:45:31;8.50;99.90
1297;DHT22;641;48.492;9.184;2022-11-11T09:50:36;8.40;99.90
1297;DHT22;641;48.492;9.184;2022-11-11T09:53:20;8.50;99.90
1297;DHT22;641;48.492;9.184;2022-11-11T09:55:54;8.60;99.90
1297;DHT22;641;48.492;9.184;2022-11-11T09:58:40;8.70;99.90
1297;DHT22;641;48.492;9.184;2022-11-11T10:01:14;8.60;99.90
1297;DHT22;641;48.492;9.184;2022-11-11T10:03:46;8.70;99.90
1297;DHT22;641;48.492;9.184;2022-11-11T10:06:26;8.60;99.90
1297;DHT22;641;48.492;9.184;2022-11-11T10:09:01;9.00;99.90
1297;DHT22;641;48.492;9.184;2022-11-11T10:11:46;8.70;99.90
1297;DHT22;641;48.492;9.184;2022-11-11T10:14:13;9.00;99.90
1297;DHT22;641;48.492;9.184;2022-11-11T10:16:53;8.80;99.90
1297;DHT22;641;48.492;9.184;2022-11-11T10:19:28;8.90;99.90
1297;DHT22;641;48.492;9.184;2022-11-11T10:22:21;9.10;99.90
1297;DHT22;641;48.492;9.184;2022-11-11T10:24:57;9.30;99.90
1297;DHT22;641;48.492;9.184;2022-11-11T10:27:28;9.70;99.90
1297;DHT22;641;48.492;9.184;2022-11-11T10:29:55;10.10;99.90
1297;DHT22;641;48.492;9.184;2022-11-11T10:32:26;10.10;99.90
1297;DHT22;641;48.492;9.184;2022-11-11T10:34:53;10.30;99.90
1297;DHT22;641;48.492;9.184;2022-11-11T10:37:24;10.10;99.90
1297;DHT22;641;48.492;9.184;2022-11-11T10:40:24;10.10;99.90
1297;DHT22;641;48.492;9.184;2022-11-11T10:42:52;10.20;99.90
1297;DHT22;641;48.492;9.184;2022-11-11T10:45:44;10.60;99.90
1297;DHT22;641;48.492;9.184;2022-11-11T10:48:28;10.30;99.90
1297;DHT22;641;48.492;9.184;2022-11-11T10:50:58;10.60;99.90
1297;DHT22;641;48.492;9.184;2022-11-11T11:01:42;11.00;99.90
1297;DHT22;641;48.492;9.184;2022-11-11T11:04:30;10.90;99.90
1297;DHT22;641;48.492;9.184;2022-11-11T11:06:57;11.10;99.90
1297;DHT22;641;48.492;9.184;2022-11-11T11:09:46;11.40;99.90
1297;DHT22;641;48.492;9.184;2022-11-11T11:12:48;11.30;99.90
1297;DHT22;641;48.492;9.184;2022-11-11T11:15:22;11.00;99.90
1297;DHT22;641;48.492;9.184;2022-11-11T11:18:25;11.00;99.90
1297;DHT22;641;48.492;9.184;2022-11-11T11:23:43;11.30;99.90
1297;DHT22;641;48.492;9.184;2022-11-11T11:26:11;11.10;99.90
1297;DHT22;641;48.492;9.184;2022-11-11T11:28:59;10.90;99.90
1297;DHT22;641;48.492;9.184;2022-11-11T11:31:44;11.10;99.90
1297;DHT22;641;48.492;9.184;2022-11-11T11:34:11;11.20;99.90
1297;DHT22;641;48.492;9.184;2022-11-11T11:36:37;11.40;99.90
1297;DHT22;641;48.492;9.184;2022-11-11T11:39:03;11.20;99.90
1297;DHT22;641;48.492;9.184;2022-11-11T11:41:55;11.50;99.90
1297;DHT22;641;48.492;9.184;2022-11-11T11:44:35;11.60;99.90
1297;DHT22;641;48.492;9.184;2022-11-11T11:50:19;11.50;99.90
1297;DHT22;641;48.492;9.184;2022-11-11T11:53:32;11.50;99.90
1297;DHT22;641;48.492;9.184;2022-11-11T11:56:03;11.80;99.90
1297;DHT22;641;48.492;9.184;2022-11-11T12:01:43;11.70;99.90
1297;DHT22;641;48.492;9.184;2022-11-11T12:07:11;12.10;99.90
1297;DHT22;641;48.492;9.184;2022-11-11T12:09:46;12.30;99.90
1297;DHT22;641;48.492;9.184;2022-11-11T12:15:24;12.70;99.90
1297;DHT22;641;48.492;9.184;2022-11-11T12:20:38;13.00;99.90
1297;DHT22;641;48.492;9.184;2022-11-11T12:31:46;13.20;99.90
1297;DHT22;641;48.492;9.184;2022-11-11T12:34:39;13.10;99.90
1297;DHT22;641;48.492;9.184;2022-11-11T12:37:23;12.80;99.90
1297;DHT22;641;48.492;9.184;2022-11-11T12:39:54;12.70;99.90
1297;DHT22;641;48.492;9.184;2022-11-11T12:45:50;12.80;99.90
1297;DHT22;641;48.492;9.184;2022-11-11T12:51:47;13.20;99.90
1297;DHT22;641;48.492;9.184;2022-11-11T12:57:18;13.30;99.90
1297;DHT22;641;48.492;9.184;2022-11-11T13:05:34;13.60;99.90
1297;DHT22;641;48.492;9.184;2022-11-11T13:11:32;13.80;99.90
1297;DHT22;641;48.492;9.184;2022-11-11T13:17:00;13.90;99.90
1297;DHT22;641;48.492;9.184;2022-11-11T13:19:40;13.90;99.90
1297;DHT22;641;48.492;9.184;2022-11-11T13:22:24;13.80;99.90
1297;DHT22;641;48.492;9.184;2022-11-11T13:24:51;14.00;99.90
1297;DHT22;641;48.492;9.184;2022-11-11T13:27:32;14.00;99.90
1297;DHT22;641;48.492;9.184;2022-11-11T13:30:50;13.80;99.90
1297;DHT22;641;48.492;9.184;2022-11-11T13:35:45;13.90;99.90
1297;DHT22;641;48.492;9.184;2022-11-11T13:38:25;14.00;99.90
1297;DHT22;641;48.492;9.184;2022-11-11T13:40:54;14.00;99.90
1297;DHT22;641;48.492;9.184;2022-11-11T13:43:28;14.20;99.90
1297;DHT22;641;48.492;9.184;2022-11-11T13:45:58;14.00;99.90
1297;DHT22;641;48.492;9.184;2022-11-11T13:48:37;14.10;99.90
1297;DHT22;641;48.492;9.184;2022-11-11T13:51:42;14.00;99.90
1297;DHT22;641;48.492;9.184;2022-11-11T13:54:39;14.10;99.90
1297;DHT22;641;48.492;9.184;2022-11-11T16:35:31;11.20;99.90
1297;DHT22;641;48.492;9.184;2022-11-11T16:51:56;10.90;99.90
1297;DHT22;641;48.492;9.184;2022-11-11T17:01:04;10.50;99.90
1297;DHT22;641;48.492;9.184;2022-11-11T17:06:58;10.40;99.90
1297;DHT22;641;48.492;9.184;2022-11-11T19:35:21;9.80;99.90
1297;DHT22;641;48.492;9.184;2022-11-11T19:37:47;9.80;99.90
1297;DHT22;641;48.492;9.184;2022-11-11T19:40:13;10.00;99.90
1297;DHT22;641;48.492;9.184;2022-11-11T19:42:38;9.70;99.90
1297;DHT22;641;48.492;9.184;2022-11-11T19:45:04;9.90;99.90
1297;DHT22;641;48.492;9.184;2022-11-11T19:47:30;9.70;99.90
1297;DHT22;641;48.492;9.184;2022-11-11T19:49:56;9.80;99.90
1297;DHT22;641;48.492;9.184;2022-11-11T19:52:22;9.80;99.90
1297;DHT22;641;48.492;9.184;2022-11-11T19:54:47;9.90;99.90
1297;DHT22;641;48.492;9.184;2022-11-11T19:57:13;9.90;99.90
1297;DHT22;641;48.492;9.184;2022-11-11T19:59:39;10.20;99.90
1297;DHT22;641;48.492;9.184;2022-11-11T21:59:01;8.30;99.90
1297;DHT22;641;48.492;9.184;2022-11-11T22:01:33;8.50;99.90
1297;DHT22;641;48.492;9.184;2022-11-11T22:04:09;8.20;99.90
1297;DHT22;641;48.492;9.184;2022-11-11T22:06:35;8.40;99.90
1297;DHT22;641;48.492;9.184;2022-11-11T22:09:02;8.00;99.90
1297;DHT22;641;48.492;9.184;2022-11-11T22:11:30;7.90;99.90
1297;DHT22;641;48.492;9.184;2022-11-11T22:13:57;7.80;99.90
1297;DHT22;641;48.492;9.184;2022-11-11T22:16:24;7.70;99.90
1297;DHT22;641;48.492;9.184;2022-11-11T22:18:53;7.70;99.90
1297;DHT22;641;48.492;9.184;2022-11-11T22:21:20;7.80;99.90
1297;DHT22;641;48.492;9.184;2022-11-11T22:23:48;8.00;99.90
1297;DHT22;641;48.492;9.184;2022-11-11T22:26:16;7.80;99.90
1297;DHT22;641;48.492;9.184;2022-11-11T22:28:42;7.70;99.90
1297;DHT22;641;48.492;9.184;2022-11-11T22:31:17;7.80;99.90
1297;DHT22;641;48.492;9.184;2022-11-11T22:33:44;7.70;99.90
1297;DHT22;641;48.492;9.184;2022-11-11T22:36:15;7.70;99.90
1297;DHT22;641;48.492;9.184;2022-11-11T22:38:42;7.90;99.90
1297;DHT22;641;48.492;9.184;2022-11-11T22:41:15;7.60;99.90
1297;DHT22;641;48.492;9.184;2022-11-11T22:43:43;7.60;99.90
1297;DHT22;641;48.492;9.184;2022-11-11T22:46:11;7.50;99.90
1297;DHT22;641;48.492;9.184;2022-11-11T22:48:38;7.50;99.90
1297;DHT22;641;48.492;9.184;2022-11-11T22:51:06;7.30;99.90
1297;DHT22;641;48.492;9.184;2022-11-11T22:53:32;6.90;99.90
1297;DHT22;641;48.492;9.184;2022-11-11T22:56:15;7.20;99.90
1297;DHT22;641;48.492;9.184;2022-11-11T22:58:42;7.10;99.90
1297;DHT22;641;48.492;9.184;2022-11-11T23:03:43;7.20;99.90
1297;DHT22;641;48.492;9.184;2022-11-11T23:06:11;7.00;99.90
1297;DHT22;641;48.492;9.184;2022-11-11T23:08:37;7.10;99.90
1297;DHT22;641;48.492;9.184;2022-11-11T23:11:11;7.30;99.90
1297;DHT22;641;48.492;9.184;2022-11-11T23:13:38;7.20;99.90
1297;DHT22;641;48.492;9.184;2022-11-11T23:16:05;7.40;99.90
1297;DHT22;641;48.492;9.184;2022-11-11T23:18:31;7.00;99.90
1297;DHT22;641;48.492;9.184;2022-11-11T23:21:01;7.10;99.90
1297;DHT22;641;48.492;9.184;2022-11-11T23:23:28;7.20;99.90
1297;DHT22;641;48.492;9.184;2022-11-11T23:25:54;7.20;99.90
1297;DHT22;641;48.492;9.184;2022-11-11T23:28:25;7.10;99.90
1297;DHT22;641;48.492;9.184;2022-11-11T23:30:50;7.20;99.90
1297;DHT22;641;48.492;9.184;2022-11-11T23:33:16;7.00;99.90
1297;DHT22;641;48.492;9.184;2022-11-11T23:35:41;7.10;99.90
1297;DHT22;641;48.492;9.184;2022-11-11T23:38:07;7.10;99.90
1297;DHT22;641;48.492;9.184;2022-11-11T23:40:33;6.90;99.90
1297;DHT22;641;48.492;9.184;2022-11-11T23:42:59;6.80;99.90
1297;DHT22;641;48.492;9.184;2022-11-11T23:45:24;7.00;99.90
1297;DHT22;641;48.492;9.184;2022-11-11T23:47:50;7.00;99.90
1297;DHT22;641;48.492;9.184;2022-11-11T23:50:16;7.10;99.90
1297;DHT22;641;48.492;9.184;2022-11-11T23:52:41;7.00;99.90
1297;DHT22;641;48.492;9.184;2022-11-11T23:55:08;6.80;99.90
1297;DHT22;641;48.492;9.184;2022-11-11T23:57:34;6.90;99.90
